createdAt,value
2018-07-17T00:00:10.698Z,69.90
2018-07-17T00:02:38.637Z,70.00
2018-07-17T00:05:07.362Z,70.30
2018-07-17T00:07:35.014Z,70.30
2018-07-17T00:10:02.675Z,70.20
2018-07-17T00:12:30.309Z,70.40
2018-07-17T00:14:57.910Z,70.60
2018-07-17T00:17:25.716Z,70.40
2018-07-17T00:19:53.436Z,70.90
2018-07-17T00:22:21.132Z,71.00
2018-07-17T00:24:48.761Z,71.10
2018-07-17T00:27:16.388Z,70.80
2018-07-17T00:29:43.950Z,70.70
2018-07-17T00:32:11.599Z,70.80
2018-07-17T00:34:39.287Z,70.30
2018-07-17T00:37:06.976Z,70.30
2018-07-17T00:39:34.588Z,71.30
2018-07-17T00:42:02.222Z,70.20
2018-07-17T00:44:29.997Z,70.40
2018-07-17T00:46:57.698Z,70.20
2018-07-17T00:49:25.573Z,69.90
2018-07-17T00:51:53.153Z,69.40
2018-07-17T00:54:20.776Z,69.40
2018-07-17T00:56:48.387Z,69.20
2018-07-17T00:59:16.018Z,69.30
2018-07-17T01:01:49.373Z,69.20
2018-07-17T01:04:22.641Z,68.70
2018-07-17T01:06:55.925Z,68.60
2018-07-17T01:09:29.002Z,68.80
2018-07-17T01:12:02.177Z,68.60
2018-07-17T01:14:41.205Z,68.20
2018-07-17T01:19:36.584Z,67.20
2018-07-17T01:22:04.172Z,66.90
2018-07-17T01:24:31.780Z,67.00
2018-07-17T01:26:59.383Z,67.00
2018-07-17T01:29:27.048Z,66.80
2018-07-17T01:31:54.644Z,66.50
2018-07-17T01:34:22.284Z,66.30
2018-07-17T01:36:49.897Z,66.00
2018-07-17T01:39:17.543Z,65.70
2018-07-17T01:41:45.318Z,65.70
2018-07-17T01:44:16.177Z,65.40
2018-07-17T01:46:44.535Z,65.00
2018-07-17T01:49:12.416Z,64.90
2018-07-17T01:51:40.049Z,64.50
2018-07-17T01:54:07.706Z,64.30
2018-07-17T01:56:35.585Z,64.10
2018-07-17T01:59:03.248Z,63.90
2018-07-17T02:01:30.893Z,63.90
2018-07-17T02:03:58.488Z,63.70
2018-07-17T02:06:26.112Z,63.70
2018-07-17T02:08:53.711Z,63.70
2018-07-17T02:11:21.270Z,63.60
2018-07-17T02:13:48.882Z,63.60
2018-07-17T02:16:16.530Z,63.40
2018-07-17T02:18:44.199Z,63.50
2018-07-17T02:21:11.738Z,63.50
2018-07-17T02:23:39.352Z,63.50
2018-07-17T02:26:07.032Z,63.70
2018-07-17T02:28:34.626Z,63.80
2018-07-17T02:31:02.250Z,63.70
2018-07-17T02:33:29.836Z,63.90
2018-07-17T02:35:57.449Z,64.10
2018-07-17T02:38:25.064Z,63.90
2018-07-17T02:40:52.715Z,63.90
2018-07-17T02:43:20.380Z,64.90
2018-07-17T02:45:48.041Z,64.10
2018-07-17T02:48:15.906Z,64.10
2018-07-17T02:50:43.712Z,64.20
2018-07-17T02:53:11.312Z,64.20
2018-07-17T02:55:38.977Z,64.50
2018-07-17T02:58:06.573Z,64.10
2018-07-17T03:00:34.177Z,64.00
2018-07-17T03:05:29.946Z,64.30
2018-07-17T03:07:57.629Z,64.40
2018-07-17T03:10:25.285Z,64.40
2018-07-17T03:12:53.293Z,64.80
2018-07-17T03:15:20.887Z,64.90
2018-07-17T03:17:48.507Z,65.00
2018-07-17T03:20:16.171Z,65.10
2018-07-17T03:22:43.780Z,65.00
2018-07-17T03:25:11.391Z,65.10
2018-07-17T03:30:06.763Z,65.30
2018-07-17T03:32:34.375Z,65.40
2018-07-17T03:35:02.006Z,65.70
2018-07-17T03:37:29.575Z,66.00
2018-07-17T03:39:57.175Z,66.20
2018-07-17T03:42:24.779Z,66.40
2018-07-17T03:44:52.425Z,66.60
2018-07-17T03:47:20.015Z,66.80
2018-07-17T03:49:47.679Z,67.10
2018-07-17T03:52:15.431Z,67.20
2018-07-17T03:54:43.069Z,67.20
2018-07-17T03:57:10.693Z,67.40
2018-07-17T03:59:38.295Z,67.70
2018-07-17T04:02:06.171Z,68.10
2018-07-17T04:04:33.872Z,68.20
2018-07-17T04:07:01.532Z,68.40
2018-07-17T04:09:29.166Z,68.60
2018-07-17T04:11:56.806Z,68.80
2018-07-17T04:14:24.555Z,69.00
2018-07-17T04:16:54.246Z,69.20
2018-07-17T04:19:22.401Z,69.30
2018-07-17T04:21:50.686Z,69.80
2018-07-17T04:24:18.882Z,69.40
2018-07-17T04:26:46.616Z,70.20
2018-07-17T04:29:14.342Z,70.40
2018-07-17T04:31:42.427Z,71.00
2018-07-17T04:34:10.066Z,71.30
2018-07-17T04:36:37.745Z,71.40
2018-07-17T04:39:07.918Z,71.60
2018-07-17T04:41:35.652Z,72.00
2018-07-17T04:44:03.401Z,71.90
2018-07-17T04:46:31.040Z,73.00
2018-07-17T04:48:58.692Z,72.60
2018-07-17T04:51:26.350Z,72.80
2018-07-17T04:53:54.029Z,73.50
2018-07-17T04:56:21.564Z,73.30
2018-07-17T04:58:49.220Z,73.80
2018-07-17T05:01:16.858Z,74.40
2018-07-17T05:03:44.512Z,74.80
2018-07-17T05:06:12.116Z,75.30
2018-07-17T05:08:39.719Z,76.00
2018-07-17T05:11:07.325Z,76.40
2018-07-17T05:13:34.919Z,77.40
2018-07-17T05:16:02.556Z,76.40
2018-07-17T05:18:30.179Z,76.30
2018-07-17T05:20:57.809Z,76.80
2018-07-17T05:23:25.444Z,78.00
2018-07-17T05:25:53.081Z,76.90
2018-07-17T05:28:20.710Z,78.10
2018-07-17T05:30:48.327Z,77.60
2018-07-17T05:33:15.928Z,79.10
2018-07-17T05:35:43.633Z,78.20
2018-07-17T05:38:11.232Z,78.00
2018-07-17T05:40:38.826Z,79.30
2018-07-17T05:43:06.512Z,79.60
2018-07-17T05:45:34.112Z,78.60
2018-07-17T05:48:01.764Z,78.70
2018-07-17T05:50:29.415Z,78.50
2018-07-17T05:52:57.044Z,78.40
2018-07-17T05:55:24.812Z,79.50
2018-07-17T05:57:52.563Z,79.50
2018-07-17T06:00:20.184Z,79.30
2018-07-17T06:02:47.785Z,79.40
2018-07-17T06:05:15.470Z,79.50
2018-07-17T06:07:43.080Z,80.50
2018-07-17T06:10:10.705Z,81.20
2018-07-17T06:12:38.325Z,80.30
2018-07-17T06:15:06.615Z,81.30
2018-07-17T06:17:34.413Z,80.10
2018-07-17T06:20:02.119Z,79.90
2018-07-17T06:22:29.712Z,79.90
2018-07-17T06:24:57.442Z,79.90
2018-07-17T06:27:25.089Z,79.50
2018-07-17T06:29:52.686Z,79.60
2018-07-17T06:32:20.297Z,79.60
2018-07-17T06:34:47.934Z,79.80
2018-07-17T06:37:15.577Z,79.30
2018-07-17T06:39:43.254Z,79.10
2018-07-17T06:42:10.941Z,79.20
2018-07-17T06:44:38.708Z,78.50
2018-07-17T06:47:06.313Z,78.20
2018-07-17T06:49:33.995Z,79.00
2018-07-17T06:52:01.627Z,78.50
2018-07-17T06:54:29.201Z,79.30
2018-07-17T06:56:56.821Z,78.40
2018-07-17T06:59:24.406Z,77.80
2018-07-17T07:01:52.028Z,78.10
2018-07-17T07:04:19.721Z,77.20
2018-07-17T07:06:47.308Z,76.70
2018-07-17T07:09:14.931Z,76.40
2018-07-17T07:11:42.536Z,76.90
2018-07-17T07:14:10.120Z,77.20
2018-07-17T07:16:37.722Z,76.60
2018-07-17T07:19:05.476Z,76.50
2018-07-17T07:21:33.109Z,76.00
2018-07-17T07:24:00.672Z,75.80
2018-07-17T07:26:28.287Z,76.00
2018-07-17T07:28:55.987Z,75.70
2018-07-17T07:31:23.623Z,75.70
2018-07-17T07:33:51.249Z,76.00
2018-07-17T07:36:18.836Z,76.00
2018-07-17T07:38:46.425Z,76.00
2018-07-17T07:41:14.050Z,75.80
2018-07-17T07:43:41.640Z,75.40
2018-07-17T07:46:09.316Z,75.00
2018-07-17T07:48:36.964Z,74.60
2018-07-17T07:51:04.692Z,74.00
2018-07-17T07:53:32.280Z,73.50
2018-07-17T07:55:59.929Z,72.90
2018-07-17T07:58:27.528Z,72.70
2018-07-17T08:00:55.125Z,72.30
2018-07-17T08:03:22.801Z,72.30
2018-07-17T08:05:50.423Z,72.30
2018-07-17T08:08:18.109Z,72.10
2018-07-17T08:10:45.753Z,71.60
2018-07-17T08:13:13.315Z,71.10
2018-07-17T08:15:40.883Z,70.40
2018-07-17T08:18:08.494Z,70.40
2018-07-17T08:20:36.123Z,70.30
2018-07-17T08:23:03.819Z,70.20
2018-07-17T08:25:31.467Z,70.00
2018-07-17T08:27:59.038Z,69.50
2018-07-17T08:30:26.727Z,68.40
2018-07-17T08:35:22.046Z,67.20
2018-07-17T08:40:17.301Z,66.70
2018-07-17T08:42:44.902Z,65.70
2018-07-17T08:45:12.515Z,66.00
2018-07-17T08:47:40.137Z,65.70
2018-07-17T08:50:07.773Z,64.50
2018-07-17T08:52:35.582Z,64.90
2018-07-17T08:55:03.279Z,64.40
2018-07-17T08:57:31.137Z,64.20
2018-07-17T08:59:58.796Z,63.90
2018-07-17T09:02:26.401Z,63.50
2018-07-17T09:04:54.003Z,63.10
2018-07-17T09:07:21.629Z,62.60
2018-07-17T09:09:49.233Z,62.30
2018-07-17T09:12:16.867Z,61.70
2018-07-17T09:14:44.533Z,60.60
2018-07-17T09:17:12.150Z,59.70
2018-07-17T09:19:39.760Z,59.10
2018-07-17T09:22:07.406Z,59.40
2018-07-17T09:24:35.044Z,58.40
2018-07-17T09:27:02.656Z,58.00
2018-07-17T09:29:30.297Z,57.30
2018-07-17T09:31:57.896Z,57.50
2018-07-17T09:34:25.488Z,57.40
2018-07-17T09:36:53.116Z,57.20
2018-07-17T09:39:20.744Z,56.70
2018-07-17T09:41:48.344Z,56.00
2018-07-17T09:44:16.054Z,55.30
2018-07-17T09:46:43.655Z,54.50
2018-07-17T09:49:11.297Z,54.10
2018-07-17T09:51:39.010Z,52.20
2018-07-17T09:54:06.653Z,53.00
2018-07-17T09:56:34.253Z,52.90
2018-07-17T09:59:01.857Z,52.30
2018-07-17T10:01:35.140Z,52.60
2018-07-17T10:04:02.788Z,51.40
2018-07-17T10:06:30.425Z,51.60
2018-07-17T10:08:57.960Z,51.20
2018-07-17T10:11:25.613Z,50.70
2018-07-17T10:13:53.213Z,50.90
2018-07-17T10:16:20.870Z,50.00
2018-07-17T10:18:48.463Z,50.00
2018-07-17T10:21:16.178Z,48.90
2018-07-17T10:23:43.782Z,48.70
2018-07-17T10:26:11.424Z,47.80
2018-07-17T10:28:39.002Z,47.60
2018-07-17T10:31:06.896Z,47.40
2018-07-17T10:33:34.496Z,47.60
2018-07-17T10:36:02.080Z,46.80
2018-07-17T10:38:29.723Z,47.30
2018-07-17T10:40:57.318Z,46.60
2018-07-17T10:43:24.912Z,47.00
2018-07-17T10:45:52.496Z,46.70
2018-07-17T10:48:20.131Z,46.30
2018-07-17T10:50:47.739Z,45.50
2018-07-17T10:53:15.342Z,45.80
2018-07-17T10:55:42.951Z,45.40
2018-07-17T11:00:38.370Z,44.70
2018-07-17T11:03:06.025Z,43.50
2018-07-17T11:05:33.622Z,43.30
2018-07-17T11:08:01.257Z,44.00
2018-07-17T11:12:56.553Z,44.40
2018-07-17T11:15:24.136Z,44.20
2018-07-17T11:17:51.941Z,41.90
2018-07-17T11:20:19.630Z,42.80
2018-07-17T11:22:47.213Z,43.20
2018-07-17T11:25:14.820Z,42.10
2018-07-17T11:27:42.453Z,43.10
2018-07-17T11:30:10.163Z,41.40
2018-07-17T11:32:37.771Z,41.00
2018-07-17T11:35:05.716Z,39.90
2018-07-17T11:37:33.367Z,41.10
2018-07-17T11:40:01.019Z,40.50
2018-07-17T11:42:28.679Z,40.10
2018-07-17T11:44:56.280Z,40.50
2018-07-17T11:47:23.827Z,39.50
2018-07-17T11:49:51.397Z,39.30
2018-07-17T11:52:18.956Z,39.60
2018-07-17T11:54:46.568Z,39.20
2018-07-17T11:57:14.178Z,39.10
2018-07-17T11:59:41.736Z,37.30
2018-07-17T12:02:09.327Z,37.90
2018-07-17T12:04:36.913Z,37.70
2018-07-17T12:07:04.460Z,37.30
2018-07-17T12:09:32.033Z,37.40
2018-07-17T12:11:59.635Z,37.40
2018-07-17T12:14:27.214Z,35.50
2018-07-17T12:16:54.781Z,36.60
2018-07-17T12:19:22.363Z,36.60
2018-07-17T12:21:49.985Z,36.70
2018-07-17T12:24:17.613Z,36.30
2018-07-17T12:26:45.272Z,35.60
2018-07-17T12:29:12.836Z,36.90
2018-07-17T12:34:08.018Z,36.10
2018-07-17T12:36:35.580Z,34.40
2018-07-17T12:39:03.939Z,35.50
2018-07-17T12:41:31.635Z,35.80
2018-07-17T12:43:59.240Z,35.50
2018-07-17T12:46:26.906Z,35.10
2018-07-17T12:48:54.465Z,34.90
2018-07-17T12:51:22.112Z,35.10
2018-07-17T12:53:49.753Z,34.00
2018-07-17T12:56:17.409Z,34.50
2018-07-17T12:58:45.027Z,35.00
2018-07-17T13:01:12.729Z,34.90
2018-07-17T13:03:40.416Z,35.00
2018-07-17T13:06:08.069Z,34.70
2018-07-17T13:08:35.741Z,34.20
2018-07-17T13:11:03.389Z,34.40
2018-07-17T13:13:30.977Z,34.20
2018-07-17T13:15:58.639Z,33.70
2018-07-17T13:18:26.280Z,33.80
2018-07-17T13:23:21.417Z,33.60
2018-07-17T13:25:49.014Z,32.50
2018-07-17T13:28:16.826Z,33.60
2018-07-17T13:30:44.462Z,33.40
2018-07-17T13:35:39.689Z,33.90
2018-07-17T13:38:07.280Z,33.60
2018-07-17T13:40:34.929Z,33.40
2018-07-17T13:43:02.517Z,33.10
2018-07-17T13:45:30.588Z,32.60
2018-07-17T13:47:58.187Z,33.00
2018-07-17T13:50:25.880Z,32.60
2018-07-17T13:52:54.668Z,32.00
2018-07-17T13:55:22.379Z,32.30
2018-07-17T13:57:49.985Z,32.40
2018-07-17T14:00:17.787Z,32.40
2018-07-17T14:02:45.382Z,32.20
2018-07-17T14:05:13.019Z,31.30
2018-07-17T14:07:40.625Z,32.20
2018-07-17T14:10:08.275Z,32.30
2018-07-17T14:12:35.837Z,32.10
2018-07-17T14:15:03.693Z,32.10
2018-07-17T14:17:31.307Z,33.00
2018-07-17T14:19:58.860Z,32.40
2018-07-17T14:22:26.466Z,32.50
2018-07-17T14:24:54.050Z,32.60
2018-07-17T14:27:21.618Z,32.50
2018-07-17T14:32:16.769Z,33.10
2018-07-17T14:34:44.327Z,32.70
2018-07-17T14:37:11.906Z,33.20
2018-07-17T14:39:39.509Z,33.50
2018-07-17T14:44:34.751Z,32.10
2018-07-17T14:47:02.411Z,32.50
2018-07-17T14:49:30.001Z,33.10
2018-07-17T14:51:57.581Z,33.10
2018-07-17T14:54:25.149Z,33.80
2018-07-17T14:56:52.720Z,34.10
2018-07-17T14:59:20.492Z,34.20
2018-07-17T15:01:48.138Z,33.40
2018-07-17T15:04:15.792Z,33.00
2018-07-17T15:06:43.390Z,33.00
2018-07-17T15:09:10.977Z,32.20
2018-07-17T15:11:38.621Z,31.90
2018-07-17T15:14:06.226Z,31.50
2018-07-17T15:16:33.872Z,31.00
2018-07-17T15:19:01.455Z,30.30
2018-07-17T15:21:29.052Z,30.90
2018-07-17T15:23:56.665Z,30.60
2018-07-17T15:26:24.306Z,30.40
2018-07-17T15:28:51.928Z,30.20
2018-07-17T15:31:19.586Z,30.00
2018-07-17T15:33:47.147Z,30.30
2018-07-17T15:36:14.830Z,31.00
2018-07-17T15:38:42.420Z,30.50
2018-07-17T15:41:10.109Z,29.90
2018-07-17T15:43:37.789Z,29.30
2018-07-17T15:46:05.392Z,29.70
2018-07-17T15:48:33.016Z,29.30
2018-07-17T15:51:00.660Z,29.00
2018-07-17T15:53:28.366Z,29.10
2018-07-17T15:55:55.918Z,28.80
2018-07-17T15:58:23.497Z,29.50
2018-07-17T16:00:51.145Z,30.30
2018-07-17T16:03:18.968Z,30.20
2018-07-17T16:05:46.651Z,30.30
2018-07-17T16:08:14.229Z,30.40
2018-07-17T16:10:41.913Z,30.10
2018-07-17T16:13:09.525Z,30.30
2018-07-17T16:15:37.181Z,30.40
2018-07-17T16:18:04.970Z,30.80
2018-07-17T16:20:32.608Z,30.90
2018-07-17T16:23:00.241Z,30.30
2018-07-17T16:25:27.860Z,30.50
2018-07-17T16:27:56.329Z,31.30
2018-07-17T16:30:24.178Z,30.50
2018-07-17T16:32:51.783Z,30.90
2018-07-17T16:35:19.429Z,30.90
2018-07-17T16:37:47.092Z,30.30
2018-07-17T16:40:14.786Z,30.60
2018-07-17T16:42:42.431Z,30.30
2018-07-17T16:45:10.085Z,30.00
2018-07-17T16:47:37.723Z,29.50
2018-07-17T16:50:05.535Z,29.80
2018-07-17T16:52:33.240Z,30.50
2018-07-17T16:55:00.958Z,30.20
2018-07-17T16:57:28.615Z,29.80
2018-07-17T16:59:56.296Z,29.20
2018-07-17T17:02:23.890Z,29.40
2018-07-17T17:04:51.506Z,29.50
2018-07-17T17:07:19.129Z,29.70
2018-07-17T17:09:46.804Z,29.90
2018-07-17T17:12:14.576Z,30.30
2018-07-17T17:14:42.248Z,31.10
2018-07-17T17:17:09.992Z,31.90
2018-07-17T17:19:37.586Z,32.60
2018-07-17T17:22:05.218Z,32.60
2018-07-17T17:24:32.848Z,32.50
2018-07-17T17:27:00.457Z,32.20
2018-07-17T17:29:28.172Z,32.60
2018-07-17T17:34:23.316Z,33.40
2018-07-17T17:36:50.988Z,33.80
2018-07-17T17:39:18.607Z,34.00
2018-07-17T17:41:46.249Z,34.00
2018-07-17T17:44:13.856Z,33.20
2018-07-17T17:46:49.104Z,32.60
2018-07-17T17:49:26.349Z,32.30
2018-07-17T17:52:00.639Z,31.60
2018-07-17T17:54:46.589Z,30.60
2018-07-17T17:57:23.027Z,30.00
2018-07-17T17:59:50.684Z,29.60
2018-07-17T18:02:18.302Z,29.80
2018-07-17T18:04:53.031Z,29.90
2018-07-17T18:07:22.277Z,30.50
2018-07-17T18:09:54.844Z,30.90
2018-07-17T18:12:28.000Z,31.30
2018-07-17T18:15:00.845Z,32.10
2018-07-17T18:17:34.903Z,33.10
2018-07-17T18:20:09.237Z,33.90
2018-07-17T18:22:37.910Z,34.50
2018-07-17T18:25:12.655Z,35.10
2018-07-17T18:27:40.452Z,35.50
2018-07-17T18:30:08.045Z,36.10
2018-07-17T18:32:35.659Z,36.10
2018-07-17T18:35:03.340Z,36.70
2018-07-17T18:37:31.325Z,37.00
2018-07-17T18:39:59.032Z,37.40
2018-07-17T18:42:26.596Z,37.90
2018-07-17T18:44:54.182Z,38.30
2018-07-17T18:47:21.882Z,38.80
2018-07-17T18:50:11.997Z,38.70
2018-07-17T18:52:17.296Z,39.50
2018-07-17T18:54:44.869Z,39.40
2018-07-17T18:57:12.493Z,39.70
2018-07-17T18:59:40.151Z,39.90
2018-07-17T19:02:08.740Z,40.20
2018-07-17T19:04:36.974Z,40.60
2018-07-17T19:07:04.709Z,41.10
2018-07-17T19:09:32.300Z,41.20
2018-07-17T19:11:59.917Z,41.30
2018-07-17T19:14:27.505Z,41.60
2018-07-17T19:16:55.202Z,41.90
2018-07-17T19:19:22.882Z,42.20
2018-07-17T19:21:50.480Z,42.50
2018-07-17T19:24:18.102Z,42.90
2018-07-17T19:26:45.670Z,43.20
2018-07-17T19:29:13.331Z,43.40
2018-07-17T19:31:40.918Z,43.80
2018-07-17T19:36:36.044Z,44.60
2018-07-17T19:41:33.140Z,44.80
2018-07-17T19:44:00.778Z,44.90
2018-07-17T19:46:28.465Z,45.00
2018-07-17T19:48:56.061Z,45.60
2018-07-17T19:51:23.656Z,45.80
2018-07-17T19:53:51.304Z,46.30
2018-07-17T19:56:18.980Z,46.70
2018-07-17T19:58:46.627Z,47.00
2018-07-17T20:01:14.328Z,47.50
2018-07-17T20:03:41.972Z,47.80
2018-07-17T20:06:09.597Z,48.10
2018-07-17T20:08:37.295Z,48.20
2018-07-17T20:11:04.920Z,48.80
2018-07-17T20:13:32.600Z,48.90
2018-07-17T20:16:00.210Z,49.10
2018-07-17T20:18:27.870Z,49.50
2018-07-17T20:20:55.544Z,49.80
2018-07-17T20:23:23.221Z,50.10
2018-07-17T20:25:51.019Z,50.40
2018-07-17T20:28:18.748Z,50.80
2018-07-17T20:30:46.414Z,51.40
2018-07-17T20:33:14.078Z,52.50
2018-07-17T20:35:41.694Z,52.20
2018-07-17T20:38:09.453Z,52.60
2018-07-17T20:40:37.132Z,53.10
2018-07-17T20:43:05.274Z,53.50
2018-07-17T20:45:32.997Z,53.80
2018-07-17T20:48:00.591Z,53.90
2018-07-17T20:50:28.281Z,54.10
2018-07-17T20:52:56.095Z,54.20
2018-07-17T20:55:23.720Z,54.40
2018-07-17T20:57:51.419Z,54.70
2018-07-17T21:00:19.261Z,55.00
2018-07-17T21:02:46.872Z,55.30
2018-07-17T21:05:14.577Z,55.60
2018-07-17T21:07:42.230Z,55.70
2018-07-17T21:10:09.899Z,56.00
2018-07-17T21:12:37.553Z,56.30
2018-07-17T21:15:05.462Z,56.60
2018-07-17T21:17:33.383Z,56.80
2018-07-17T21:20:01.047Z,56.90
2018-07-17T21:22:28.738Z,57.10
2018-07-17T21:24:56.517Z,57.20
2018-07-17T21:27:24.149Z,57.40
2018-07-17T21:29:51.757Z,57.80
2018-07-17T21:32:19.686Z,58.30
2018-07-17T21:34:47.317Z,58.30
2018-07-17T21:37:14.941Z,58.60
2018-07-17T21:39:42.529Z,58.60
2018-07-17T21:42:10.097Z,58.70
2018-07-17T21:44:37.747Z,58.60
2018-07-17T21:47:05.331Z,58.90
2018-07-17T21:49:32.952Z,59.10
2018-07-17T21:52:00.600Z,59.00
2018-07-17T21:54:28.268Z,59.20
2018-07-17T21:56:55.857Z,59.60
2018-07-17T21:59:23.479Z,59.90
2018-07-17T22:04:25.509Z,60.30
2018-07-17T22:06:53.208Z,60.00
2018-07-17T22:09:20.800Z,60.50
2018-07-17T22:11:48.446Z,60.70
2018-07-17T22:14:16.072Z,60.50
2018-07-17T22:16:43.712Z,60.50
2018-07-17T22:19:11.324Z,60.50
2018-07-17T22:21:38.903Z,60.70
2018-07-17T22:24:06.476Z,60.90
2018-07-17T22:26:34.110Z,61.70
2018-07-17T22:29:01.708Z,62.10
2018-07-17T22:31:29.326Z,62.30
2018-07-17T22:33:56.945Z,62.50
2018-07-17T22:36:24.611Z,62.80
2018-07-17T22:38:52.216Z,63.10
2018-07-17T22:41:19.877Z,63.10
2018-07-17T22:43:47.465Z,63.70
2018-07-17T22:46:15.121Z,63.50
2018-07-17T22:48:42.716Z,63.70
2018-07-17T22:51:10.319Z,63.60
2018-07-17T22:53:37.965Z,64.00
2018-07-17T22:58:33.060Z,64.80
2018-07-17T23:01:00.629Z,65.00
2018-07-17T23:03:28.233Z,64.90
2018-07-17T23:05:55.899Z,65.20
2018-07-17T23:08:23.502Z,65.50
2018-07-17T23:10:51.130Z,65.70
2018-07-17T23:13:18.917Z,65.70
2018-07-17T23:15:46.510Z,66.20
2018-07-17T23:18:14.173Z,66.10
2018-07-17T23:20:41.766Z,66.20
2018-07-17T23:23:09.400Z,66.40
2018-07-17T23:25:37.031Z,67.40
2018-07-17T23:28:04.635Z,66.30
2018-07-17T23:30:32.242Z,66.20
2018-07-17T23:32:59.882Z,65.80
2018-07-17T23:35:27.454Z,66.00
2018-07-17T23:37:55.088Z,66.30
2018-07-17T23:40:23.043Z,66.50
2018-07-17T23:42:50.706Z,66.70
2018-07-17T23:45:18.533Z,66.80
2018-07-17T23:47:46.920Z,67.00
2018-07-17T23:52:42.060Z,66.80
2018-07-17T23:55:09.665Z,66.90
2018-07-17T23:57:37.237Z,67.40
